Time;durP1;ratioP1;P1;durP2;ratioP2;P2;SDS_P1;SDS_P2;PMS_P1;PMS_P2;Temp;Humidity;BMP_temperature;BMP_pressure;BME280_temperature;BME280_humidity;BME280_pressure;Samples;Min_cycle;Max_cycle;Signal;HPM_P1;HPM_P2
2023/03/02 00:01:20;;;;;;;59.83;34.87;;;3.30;99.90;;;;;;4990831;28;20303;-79
2023/03/02 00:03:48;;;;;;;61.10;35.47;;;3.40;99.90;;;;;;4991987;28;20644;-78
2023/03/02 00:06:16;;;;;;;62.93;35.60;;;3.40;99.90;;;;;;4991948;28;20296;-78
2023/03/02 00:08:44;;;;;;;62.03;35.70;;;3.40;99.90;;;;;;4991765;28;20335;-78
2023/03/02 00:11:11;;;;;;;64.97;37.23;;;3.40;99.90;;;;;;4992626;28;20230;-79
2023/03/02 00:13:39;;;;;;;65.60;37.67;;;3.40;99.90;;;;;;4991427;28;20271;-79
2023/03/02 00:16:06;;;;;;;70.97;39.80;;;3.40;99.90;;;;;;4991958;28;20211;-79
2023/03/02 00:18:33;;;;;;;67.80;38.23;;;3.40;99.90;;;;;;4992529;28;20640;-77
2023/03/02 00:21:02;;;;;;;67.93;37.90;;;3.40;99.90;;;;;;4991533;28;20244;-79
2023/03/02 00:23:28;;;;;;;69.93;39.90;;;3.40;99.90;;;;;;4991890;28;20314;-78
2023/03/02 00:25:55;;;;;;;66.93;37.43;;;3.40;99.90;;;;;;4991854;28;20210;-79
2023/03/02 00:28:22;;;;;;;71.23;38.73;;;3.40;99.90;;;;;;4993277;28;20291;-78
2023/03/02 00:30:49;;;;;;;68.10;40.40;;;3.40;99.90;;;;;;4995263;28;20231;-78
2023/03/02 00:33:16;;;;;;;71.87;39.13;;;3.40;99.90;;;;;;4995379;28;20251;-79
2023/03/02 00:35:43;;;;;;;73.30;39.27;;;3.40;99.90;;;;;;4994479;28;20204;-79
2023/03/02 00:38:11;;;;;;;69.00;37.83;;;3.50;99.90;;;;;;4995290;28;20212;-81
2023/03/02 00:40:38;;;;;;;69.20;39.40;;;3.50;99.90;;;;;;4995884;28;20307;-79
2023/03/02 00:43:05;;;;;;;67.90;39.97;;;3.50;99.90;;;;;;4994745;28;20204;-79
2023/03/02 00:45:32;;;;;;;73.97;40.03;;;3.40;99.90;;;;;;4995095;28;20191;-77
2023/03/02 00:47:59;;;;;;;71.17;37.93;;;3.40;99.90;;;;;;5000560;28;20278;-79
2023/03/02 00:50:26;;;;;;;68.60;38.83;;;3.50;99.90;;;;;;5014311;28;20201;-79
2023/03/02 00:52:53;;;;;;;66.83;38.57;;;3.50;99.90;;;;;;5014259;28;20645;-78
2023/03/02 00:55:21;;;;;;;69.20;39.30;;;3.50;99.90;;;;;;5014701;28;20581;-79
2023/03/02 00:57:53;;;;;;;67.23;37.53;;;3.50;99.90;;;;;;5013838;28;20274;-78
2023/03/02 01:00:21;;;;;;;70.03;38.73;;;3.50;99.90;;;;;;5014030;28;20214;-78
2023/03/02 01:02:49;;;;;;;68.27;39.60;;;3.50;99.90;;;;;;5013198;28;20254;-79
2023/03/02 01:05:16;;;;;;;65.80;37.73;;;3.50;99.90;;;;;;5014382;28;20199;-79
2023/03/02 01:07:43;;;;;;;70.90;39.23;;;3.50;99.90;;;;;;5014638;28;20288;-79
2023/03/02 01:10:11;;;;;;;68.33;38.60;;;3.50;99.90;;;;;;5013013;28;20203;-78
2023/03/02 01:12:40;;;;;;;67.13;36.73;;;3.50;99.90;;;;;;5014408;28;20234;-79
2023/03/02 01:15:08;;;;;;;63.60;36.33;;;3.50;99.90;;;;;;5002363;28;20231;-78
2023/03/02 01:17:36;;;;;;;68.10;38.47;;;3.50;99.90;;;;;;4994115;28;20684;-78
2023/03/02 01:20:03;;;;;;;62.77;37.93;;;3.50;99.90;;;;;;4994820;28;20192;-78
2023/03/02 01:22:30;;;;;;;70.63;38.47;;;3.60;99.90;;;;;;4994821;28;20239;-79
2023/03/02 01:24:57;;;;;;;65.60;36.20;;;3.60;99.90;;;;;;4993636;28;20204;-79
2023/03/02 01:27:24;;;;;;;63.40;35.50;;;3.60;99.90;;;;;;4994473;28;20200;-79
2023/03/02 01:29:52;;;;;;;66.77;37.70;;;3.60;99.90;;;;;;4994781;28;20316;-79
2023/03/02 01:32:19;;;;;;;66.53;37.20;;;3.50;99.90;;;;;;4994021;28;20208;-79
2023/03/02 01:34:46;;;;;;;60.90;35.50;;;3.60;99.90;;;;;;4994546;28;20242;-76
2023/03/02 01:37:13;;;;;;;62.30;35.57;;;3.60;99.90;;;;;;4995713;28;20587;-79
2023/03/02 01:39:40;;;;;;;62.43;34.63;;;3.60;99.90;;;;;;5012457;28;20687;-77
2023/03/02 01:42:07;;;;;;;58.37;34.10;;;3.60;99.90;;;;;;5013934;28;20199;-80
2023/03/02 01:44:40;;;;;;;56.37;33.60;;;3.60;99.90;;;;;;4996567;28;20207;-79
2023/03/02 01:47:14;;;;;;;62.43;36.23;;;3.60;99.90;;;;;;4993780;28;20280;-79
2023/03/02 01:49:46;;;;;;;56.67;33.20;;;3.60;99.90;;;;;;4993990;28;20184;-79
2023/03/02 01:52:14;;;;;;;53.97;32.80;;;3.60;99.90;;;;;;4993286;28;20792;-78
2023/03/02 01:54:42;;;;;;;55.33;32.67;;;3.60;99.90;;;;;;4994312;28;20212;-79
2023/03/02 01:57:10;;;;;;;55.20;32.10;;;3.60;99.90;;;;;;4993919;28;20200;-79
2023/03/02 01:59:41;;;;;;;53.13;30.97;;;3.60;99.90;;;;;;4993368;28;20287;-78
2023/03/02 02:02:11;;;;;;;49.80;29.67;;;3.60;99.90;;;;;;4994243;28;20218;-78
2023/03/02 02:04:42;;;;;;;52.97;31.20;;;3.60;99.90;;;;;;4993734;28;20204;-79
2023/03/02 02:07:09;;;;;;;54.97;31.63;;;3.60;99.90;;;;;;5000898;28;20576;-79
2023/03/02 02:09:40;;;;;;;52.60;31.53;;;3.50;99.90;;;;;;5013135;28;20858;-78
2023/03/02 02:12:12;;;;;;;52.47;30.47;;;3.50;99.90;;;;;;5013177;28;20302;-77
2023/03/02 02:14:39;;;;;;;48.37;29.00;;;3.60;99.90;;;;;;4999696;28;20216;-78
2023/03/02 02:17:07;;;;;;;46.80;29.03;;;3.50;99.90;;;;;;4993454;28;20208;-79
2023/03/02 02:19:58;;;;;;;48.90;29.83;;;3.50;99.90;;;;;;4993637;28;20498;-79
2023/03/02 02:22:40;;;;;;;43.47;27.13;;;3.50;99.90;;;;;;4992825;28;20652;-79
2023/03/02 02:25:16;;;;;;;46.00;28.33;;;3.50;99.90;;;;;;4993463;28;20199;-79
2023/03/02 02:27:46;;;;;;;48.30;28.03;;;3.40;99.90;;;;;;4993085;28;20487;-79
2023/03/02 02:30:16;;;;;;;48.43;28.73;;;3.50;99.90;;;;;;4993159;28;20196;-79
2023/03/02 02:32:44;;;;;;;48.13;29.10;;;3.40;99.90;;;;;;4993461;28;20315;-79
2023/03/02 02:35:16;;;;;;;48.50;28.90;;;3.40;99.90;;;;;;4993058;28;20295;-79
2023/03/02 02:37:47;;;;;;;38.10;25.47;;;3.40;99.90;;;;;;4993620;28;20667;-79
2023/03/02 02:40:17;;;;;;;43.80;26.13;;;3.40;99.90;;;;;;4993273;28;20595;-79
2023/03/02 02:42:50;;;;;;;42.47;25.90;;;3.40;99.90;;;;;;4992061;28;20680;-79
2023/03/02 02:45:21;;;;;;;43.57;26.80;;;3.40;99.90;;;;;;4993235;28;20713;-79
2023/03/02 02:47:49;;;;;;;40.50;26.50;;;3.40;99.90;;;;;;5004581;28;20282;-79
2023/03/02 02:50:24;;;;;;;42.73;27.43;;;3.40;99.90;;;;;;5011687;28;20287;-79
2023/03/02 02:52:56;;;;;;;39.50;25.73;;;3.40;99.90;;;;;;5012016;28;20602;-78
2023/03/02 02:55:24;;;;;;;40.00;25.63;;;3.40;99.90;;;;;;5011581;28;20195;-79
2023/03/02 02:57:57;;;;;;;36.67;24.33;;;3.30;99.90;;;;;;4999760;28;20307;-79
2023/03/02 03:00:25;;;;;;;39.50;25.10;;;3.20;99.90;;;;;;4992773;28;20232;-79
2023/03/02 03:02:56;;;;;;;37.20;25.27;;;3.20;99.90;;;;;;4992565;28;20478;-78
2023/03/02 03:05:23;;;;;;;35.93;23.47;;;3.20;99.90;;;;;;4992411;28;20258;-79
2023/03/02 03:07:50;;;;;;;40.53;24.07;;;3.20;99.90;;;;;;5003602;28;20253;-79
2023/03/02 03:10:22;;;;;;;39.43;25.10;;;3.20;99.90;;;;;;5011824;28;20294;-79
2023/03/02 03:12:51;;;;;;;35.60;23.83;;;3.20;99.90;;;;;;5012384;28;20667;-79
2023/03/02 03:15:19;;;;;;;38.80;24.00;;;3.20;99.90;;;;;;5000265;28;20203;-78
2023/03/02 03:17:54;;;;;;;39.77;23.87;;;3.20;99.90;;;;;;4992074;28;20243;-78
2023/03/02 03:20:24;;;;;;;37.03;24.10;;;3.20;99.90;;;;;;4992793;28;20286;-77
2023/03/02 03:22:52;;;;;;;39.97;24.60;;;3.20;99.90;;;;;;4992396;28;20339;-78
2023/03/02 03:25:19;;;;;;;37.20;24.73;;;3.20;99.90;;;;;;5009996;28;20215;-78
2023/03/02 03:27:46;;;;;;;36.60;22.73;;;3.20;99.90;;;;;;5012508;28;20234;-78
2023/03/02 03:30:14;;;;;;;34.97;23.77;;;3.20;99.90;;;;;;5011989;28;20215;-78
2023/03/02 03:32:43;;;;;;;39.57;24.43;;;3.20;99.90;;;;;;4997424;28;20199;-77
2023/03/02 03:35:11;;;;;;;38.57;24.57;;;3.20;99.90;;;;;;4992221;28;20192;-78
2023/03/02 03:37:39;;;;;;;35.13;23.80;;;3.20;99.90;;;;;;4992204;28;20585;-78
2023/03/02 03:40:09;;;;;;;37.67;23.70;;;3.20;99.90;;;;;;4995779;28;20217;-77
2023/03/02 03:42:36;;;;;;;35.67;23.90;;;3.20;99.90;;;;;;5012443;28;20203;-79
2023/03/02 03:45:04;;;;;;;34.30;22.17;;;3.10;99.90;;;;;;5011456;28;20218;-77
2023/03/02 03:47:31;;;;;;;35.37;22.93;;;3.10;99.90;;;;;;5011929;28;20858;-78
2023/03/02 03:49:59;;;;;;;37.13;22.87;;;3.10;99.90;;;;;;4997540;28;20255;-78
2023/03/02 03:52:30;;;;;;;36.57;23.40;;;3.10;99.90;;;;;;4992218;28;20196;-78
2023/03/02 03:54:58;;;;;;;36.23;22.10;;;3.10;99.90;;;;;;4992658;28;20338;-78
2023/03/02 03:57:25;;;;;;;36.30;22.67;;;3.10;99.90;;;;;;4992245;28;20856;-77
2023/03/02 03:59:52;;;;;;;35.77;23.13;;;3.10;99.90;;;;;;5008703;28;20217;-79
2023/03/02 04:02:19;;;;;;;36.27;22.37;;;3.10;99.90;;;;;;5012162;28;20290;-77
2023/03/02 04:04:46;;;;;;;31.70;21.73;;;3.10;99.90;;;;;;5015039;28;20286;-77
2023/03/02 04:07:14;;;;;;;34.67;22.40;;;3.10;99.90;;;;;;5014840;28;20211;-78
2023/03/02 04:09:41;;;;;;;35.77;21.90;;;3.10;99.90;;;;;;5015803;28;20592;-78
2023/03/02 04:12:09;;;;;;;34.50;22.30;;;3.10;99.90;;;;;;5015480;28;20290;-78
2023/03/02 04:14:36;;;;;;;32.07;21.20;;;3.10;99.90;;;;;;5014203;28;20226;-78
2023/03/02 04:17:04;;;;;;;34.87;22.93;;;3.10;99.90;;;;;;5015471;28;20286;-78
2023/03/02 04:19:31;;;;;;;33.10;22.07;;;3.10;99.90;;;;;;5015377;28;20282;-78
2023/03/02 04:21:58;;;;;;;38.40;22.37;;;3.10;99.90;;;;;;5014941;28;20213;-78
2023/03/02 04:24:26;;;;;;;32.70;21.97;;;3.10;99.90;;;;;;5014479;28;20261;-78
2023/03/02 04:26:53;;;;;;;34.13;20.97;;;3.10;99.90;;;;;;5014611;28;20213;-78
2023/03/02 04:29:20;;;;;;;33.40;21.93;;;3.10;99.90;;;;;;5015273;28;20195;-78
2023/03/02 04:31:47;;;;;;;38.57;23.47;;;3.10;99.90;;;;;;5012407;28;20265;-78
2023/03/02 04:34:14;;;;;;;34.27;21.97;;;3.00;99.90;;;;;;4995046;28;20220;-80
2023/03/02 04:36:41;;;;;;;33.80;22.13;;;3.00;99.90;;;;;;4995351;28;20231;-79
2023/03/02 04:39:09;;;;;;;32.30;20.60;;;3.10;99.90;;;;;;4995273;28;20287;-78
2023/03/02 04:41:37;;;;;;;33.87;20.70;;;3.00;99.90;;;;;;5006885;28;20310;-78
2023/03/02 04:44:04;;;;;;;33.20;21.00;;;3.00;99.90;;;;;;5015429;28;20282;-78
2023/03/02 04:46:33;;;;;;;34.60;22.03;;;3.00;99.90;;;;;;5014324;28;20213;-79
2023/03/02 04:49:00;;;;;;;33.43;22.07;;;3.00;99.90;;;;;;5014079;28;20242;-78
2023/03/02 04:51:30;;;;;;;34.43;21.90;;;3.00;99.90;;;;;;5015049;28;20227;-77
2023/03/02 04:53:59;;;;;;;37.33;22.40;;;3.00;99.90;;;;;;5014581;28;20219;-79
2023/03/02 04:56:27;;;;;;;35.37;23.07;;;3.00;99.90;;;;;;5014217;28;20210;-78
2023/03/02 04:58:56;;;;;;;37.37;22.03;;;3.00;99.90;;;;;;5014615;28;20235;-78
2023/03/02 05:01:23;;;;;;;34.23;22.73;;;3.00;99.90;;;;;;5014672;28;20286;-78
2023/03/02 05:03:50;;;;;;;32.27;21.27;;;3.00;99.90;;;;;;5013464;28;20205;-77
2023/03/02 05:06:17;;;;;;;34.73;22.20;;;3.10;99.90;;;;;;5012205;28;20929;-78
2023/03/02 05:08:45;;;;;;;36.30;21.20;;;3.10;99.90;;;;;;4994549;28;20314;-78
2023/03/02 05:11:28;;;;;;;38.93;23.20;;;3.00;99.90;;;;;;4994499;28;20286;-78
2023/03/02 05:13:59;;;;;;;34.93;22.10;;;3.00;99.90;;;;;;4994564;28;20216;-77
2023/03/02 05:16:28;;;;;;;39.27;23.70;;;3.00;99.90;;;;;;4994325;28;20616;-77
2023/03/02 05:18:56;;;;;;;38.40;23.40;;;3.00;99.90;;;;;;4994785;28;20220;-78
2023/03/02 05:21:23;;;;;;;40.27;22.17;;;3.00;99.90;;;;;;4994463;28;20204;-78
2023/03/02 05:23:50;;;;;;;36.83;24.57;;;3.00;99.90;;;;;;4994203;28;20232;-77
2023/03/02 05:26:17;;;;;;;35.43;22.90;;;3.00;99.90;;;;;;4995027;28;20666;-78
2023/03/02 05:28:45;;;;;;;34.67;23.53;;;3.10;99.90;;;;;;4994573;28;20287;-79
2023/03/02 05:31:17;;;;;;;36.97;23.93;;;3.10;99.90;;;;;;4994197;28;20200;-78
2023/03/02 05:33:44;;;;;;;35.17;23.70;;;3.10;99.90;;;;;;4994375;28;20323;-78
2023/03/02 05:36:11;;;;;;;40.30;24.67;;;3.10;99.90;;;;;;4994298;28;20226;-78
2023/03/02 05:38:38;;;;;;;40.27;26.33;;;3.10;99.90;;;;;;4994539;28;20299;-79
2023/03/02 05:41:05;;;;;;;38.93;23.77;;;3.10;99.90;;;;;;4994571;28;20240;-78
2023/03/02 05:43:33;;;;;;;35.97;22.27;;;3.10;99.90;;;;;;4994179;28;20214;-80
2023/03/02 05:46:00;;;;;;;37.63;23.60;;;3.10;99.90;;;;;;4994059;28;20676;-78
2023/03/02 05:48:29;;;;;;;37.63;23.03;;;3.10;99.90;;;;;;5002457;28;20508;-78
2023/03/02 05:50:56;;;;;;;36.83;24.70;;;3.10;99.90;;;;;;5013906;28;20195;-78
2023/03/02 05:53:23;;;;;;;35.43;23.00;;;3.10;99.90;;;;;;4996766;28;20596;-78
2023/03/02 05:55:51;;;;;;;39.53;24.53;;;3.00;99.90;;;;;;4994646;28;20538;-78
2023/03/02 05:58:19;;;;;;;35.23;22.27;;;2.90;99.90;;;;;;4993888;28;20206;-78
2023/03/02 06:00:48;;;;;;;34.50;22.77;;;3.00;99.90;;;;;;4993724;28;20200;-79
2023/03/02 06:03:16;;;;;;;38.00;23.03;;;3.00;99.90;;;;;;4993924;28;20283;-78
2023/03/02 06:05:51;;;;;;;35.77;22.70;;;3.00;99.90;;;;;;4993336;28;20217;-78
2023/03/02 06:08:18;;;;;;;32.93;20.97;;;2.90;99.90;;;;;;4994528;28;20270;-79
2023/03/02 06:10:45;;;;;;;36.30;23.27;;;2.90;99.90;;;;;;4993969;28;20200;-79
2023/03/02 06:13:12;;;;;;;33.93;21.70;;;2.90;99.90;;;;;;4997221;28;20281;-78
2023/03/02 06:15:39;;;;;;;39.70;23.93;;;2.80;99.90;;;;;;5013613;28;20262;-78
2023/03/02 06:18:06;;;;;;;39.40;23.03;;;2.80;99.90;;;;;;4996855;28;20224;-78
2023/03/02 06:20:33;;;;;;;36.33;22.70;;;2.80;99.90;;;;;;4992835;28;20294;-78
2023/03/02 06:23:01;;;;;;;41.17;22.97;;;2.80;99.90;;;;;;4993276;28;20234;-78
2023/03/02 06:25:29;;;;;;;34.67;21.07;;;2.90;99.90;;;;;;4993720;28;20244;-78
2023/03/02 06:27:56;;;;;;;36.40;23.07;;;2.90;99.90;;;;;;4992896;28;20283;-79
2023/03/02 06:30:24;;;;;;;37.73;23.50;;;2.90;99.90;;;;;;4993531;28;20258;-77
2023/03/02 06:32:52;;;;;;;39.60;23.27;;;2.90;99.90;;;;;;4998912;28;20203;-78
2023/03/02 06:35:19;;;;;;;34.97;22.57;;;2.90;99.90;;;;;;5012107;28;20222;-78
2023/03/02 06:37:46;;;;;;;34.77;21.27;;;2.90;99.90;;;;;;5007508;28;20208;-78
2023/03/02 06:40:14;;;;;;;34.60;22.10;;;3.00;99.90;;;;;;4993063;28;20208;-78
2023/03/02 06:42:42;;;;;;;35.03;21.67;;;2.90;99.90;;;;;;4993179;28;20275;-78
2023/03/02 06:45:10;;;;;;;37.63;21.87;;;2.90;99.90;;;;;;5001748;28;20239;-77
2023/03/02 06:47:37;;;;;;;38.67;24.30;;;2.90;99.90;;;;;;4992968;28;20286;-78
2023/03/02 06:50:04;;;;;;;35.77;22.07;;;2.90;99.90;;;;;;4992785;28;20206;-78
2023/03/02 06:52:31;;;;;;;37.43;22.73;;;2.90;99.90;;;;;;5006866;28;20269;-78
2023/03/02 06:54:58;;;;;;;39.43;23.00;;;2.90;99.90;;;;;;5011325;28;20274;-79
2023/03/02 06:57:32;;;;;;;34.97;21.67;;;2.90;99.90;;;;;;5012575;28;20213;-78
2023/03/02 06:59:59;;;;;;;37.00;22.97;;;3.00;99.90;;;;;;5012498;28;20310;-78
2023/03/02 07:02:26;;;;;;;37.80;23.13;;;3.00;99.90;;;;;;5012153;28;20306;-78
2023/03/02 07:04:53;;;;;;;41.17;23.60;;;3.10;99.90;;;;;;5012328;28;20235;-77
2023/03/02 07:07:20;;;;;;;34.30;22.03;;;3.00;99.90;;;;;;5010676;28;20199;-77
2023/03/02 07:09:47;;;;;;;38.67;21.63;;;3.00;99.90;;;;;;4992328;28;20664;-78
2023/03/02 07:12:14;;;;;;;39.43;23.07;;;3.00;99.90;;;;;;4993136;28;20286;-78
2023/03/02 07:14:42;;;;;;;38.83;23.53;;;3.00;99.90;;;;;;4992807;28;20247;-79
2023/03/02 07:17:09;;;;;;;35.63;22.53;;;3.00;99.90;;;;;;4992453;28;20203;-78
2023/03/02 07:19:37;;;;;;;38.20;22.90;;;3.00;99.90;;;;;;4992776;28;20534;-78
2023/03/02 07:22:04;;;;;;;36.47;23.20;;;3.00;99.90;;;;;;4992116;28;20227;-77
2023/03/02 07:24:31;;;;;;;37.37;22.10;;;3.00;99.90;;;;;;4992990;28;20750;-78
2023/03/02 07:26:58;;;;;;;42.23;24.57;;;3.00;99.90;;;;;;4992960;28;20204;-77
2023/03/02 07:29:25;;;;;;;38.07;21.60;;;3.00;99.90;;;;;;4993070;28;20290;-78
2023/03/02 07:31:56;;;;;;;36.47;22.50;;;3.00;99.90;;;;;;4991911;28;20240;-78
2023/03/02 07:34:24;;;;;;;34.30;21.50;;;3.00;99.90;;;;;;4992590;28;20211;-78
2023/03/02 07:36:51;;;;;;;39.80;24.07;;;3.00;99.90;;;;;;4992632;28;20212;-77
2023/03/02 07:39:18;;;;;;;40.27;22.17;;;3.10;99.90;;;;;;4996044;28;20202;-77
2023/03/02 07:41:45;;;;;;;35.67;22.07;;;3.10;99.90;;;;;;5015687;28;20310;-77
2023/03/02 07:44:12;;;;;;;36.47;22.60;;;3.10;99.90;;;;;;5015552;28;20387;-78
2023/03/02 07:46:39;;;;;;;37.27;23.30;;;3.10;99.90;;;;;;5015894;28;20294;-78
2023/03/02 07:49:07;;;;;;;38.87;22.63;;;3.10;99.90;;;;;;5008823;28;20303;-78
2023/03/02 07:51:34;;;;;;;36.57;22.77;;;3.20;99.90;;;;;;4995856;28;20241;-77
2023/03/02 07:54:03;;;;;;;35.33;22.33;;;3.20;99.90;;;;;;4996167;28;20654;-77
2023/03/02 07:56:30;;;;;;;36.33;23.27;;;3.20;99.90;;;;;;4996876;28;20196;-78
2023/03/02 07:58:57;;;;;;;39.13;23.27;;;3.20;99.90;;;;;;4995387;28;20211;-78
2023/03/02 08:01:24;;;;;;;37.57;24.10;;;3.30;99.90;;;;;;4996127;28;20220;-78
2023/03/02 08:03:51;;;;;;;36.97;22.10;;;3.30;99.90;;;;;;5011594;28;20203;-77
2023/03/02 08:06:19;;;;;;;36.67;23.13;;;3.40;99.90;;;;;;5015649;28;20195;-77
2023/03/02 08:08:46;;;;;;;35.73;21.70;;;3.40;99.90;;;;;;5015529;28;20299;-77
2023/03/02 08:11:15;;;;;;;35.40;22.77;;;3.50;99.90;;;;;;4998719;28;20279;-77
2023/03/02 08:13:42;;;;;;;35.07;21.87;;;3.50;99.90;;;;;;4995627;28;20201;-77
2023/03/02 08:16:11;;;;;;;37.37;23.23;;;3.40;99.90;;;;;;5000619;28;20521;-78
2023/03/02 08:18:39;;;;;;;35.97;20.83;;;3.50;99.90;;;;;;5015295;28;20298;-79
2023/03/02 08:21:12;;;;;;;33.57;20.40;;;3.50;99.90;;;;;;5014244;28;20278;-78
2023/03/02 08:23:40;;;;;;;36.00;22.53;;;3.50;99.90;;;;;;5004297;28;20247;-77
2023/03/02 08:26:07;;;;;;;36.57;22.53;;;3.50;99.90;;;;;;5014306;28;20846;-77
2023/03/02 08:28:35;;;;;;;36.70;22.20;;;3.50;99.90;;;;;;5013769;28;20286;-78
2023/03/02 08:31:05;;;;;;;34.40;21.37;;;3.50;99.90;;;;;;5013966;28;20289;-78
2023/03/02 08:33:32;;;;;;;33.60;21.83;;;3.60;99.90;;;;;;5021297;28;20195;-77
2023/03/02 08:36:02;;;;;;;35.63;21.70;;;3.50;99.90;;;;;;5022854;28;20318;-76
2023/03/02 08:38:32;;;;;;;36.47;21.40;;;3.60;99.90;;;;;;5013892;28;20231;-76
2023/03/02 08:41:03;;;;;;;36.77;22.57;;;3.60;99.90;;;;;;5013643;28;20295;-77
2023/03/02 08:43:30;;;;;;;35.90;22.80;;;3.60;99.90;;;;;;5021640;28;20443;-77
2023/03/02 08:45:57;;;;;;;32.47;20.37;;;3.70;99.90;;;;;;5013002;28;20215;-76
2023/03/02 08:48:25;;;;;;;31.07;20.53;;;3.70;99.90;;;;;;5019603;28;20218;-77
2023/03/02 08:50:57;;;;;;;36.67;22.10;;;3.70;99.90;;;;;;5015534;28;20195;-77
2023/03/02 08:53:24;;;;;;;33.77;21.30;;;3.70;99.90;;;;;;5017983;28;20550;-76
2023/03/02 08:55:54;;;;;;;33.10;20.40;;;3.70;99.90;;;;;;5024119;28;20219;-77
2023/03/02 08:58:24;;;;;;;31.43;19.57;;;3.70;99.90;;;;;;5014322;28;20564;-77
2023/03/02 09:00:51;;;;;;;33.73;21.63;;;3.70;99.90;;;;;;5013736;28;20285;-77
2023/03/02 09:03:19;;;;;;;36.60;22.90;;;3.70;99.90;;;;;;5017916;28;20198;-78
2023/03/02 09:05:46;;;;;;;33.17;20.73;;;3.80;99.90;;;;;;5025451;28;20203;-76
2023/03/02 09:08:13;;;;;;;35.73;21.03;;;3.70;99.90;;;;;;5010809;28;20225;-76
2023/03/02 09:10:40;;;;;;;33.60;20.70;;;3.80;99.90;;;;;;5013909;28;20213;-78
2023/03/02 09:13:07;;;;;;;34.40;21.33;;;3.80;99.90;;;;;;5015906;28;20227;-78
2023/03/02 09:15:37;;;;;;;33.17;20.70;;;3.80;99.90;;;;;;5005809;28;20310;-78
2023/03/02 09:18:04;;;;;;;36.73;22.97;;;3.90;99.90;;;;;;5011539;28;20226;-78
2023/03/02 09:20:32;;;;;;;31.67;20.63;;;3.90;99.90;;;;;;5013040;28;20311;-78
2023/03/02 09:22:59;;;;;;;38.67;22.20;;;3.90;99.90;;;;;;5013041;28;20310;-78
2023/03/02 09:25:26;;;;;;;34.60;21.43;;;4.00;99.90;;;;;;5014833;28;20199;-78
2023/03/02 09:27:53;;;;;;;35.57;22.27;;;4.10;99.90;;;;;;5013969;28;20203;-77
2023/03/02 09:30:20;;;;;;;33.23;20.37;;;4.20;99.90;;;;;;5013438;28;20604;-79
2023/03/02 09:32:49;;;;;;;35.07;21.87;;;4.20;99.90;;;;;;4995780;28;20210;-79
2023/03/02 09:35:16;;;;;;;36.93;22.30;;;4.40;99.90;;;;;;4994557;28;20228;-79
2023/03/02 09:37:42;;;;;;;34.47;22.80;;;4.50;99.90;;;;;;4994652;28;20247;-79
2023/03/02 09:40:18;;;;;;;33.60;20.67;;;4.50;99.90;;;;;;5006474;28;20278;-78
2023/03/02 09:43:01;;;;;;;33.70;20.80;;;4.50;99.90;;;;;;4999471;28;20196;-79
2023/03/02 09:45:51;;;;;;;34.87;21.40;;;4.60;99.90;;;;;;4992886;28;20200;-79
2023/03/02 09:48:30;;;;;;;34.40;20.87;;;4.50;99.90;;;;;;5009259;28;20608;-79
2023/03/02 09:51:11;;;;;;;34.80;22.10;;;4.60;99.90;;;;;;4995275;28;20222;-79
2023/03/02 09:53:45;;;;;;;31.60;21.10;;;4.70;99.90;;;;;;4994562;28;20278;-78
2023/03/02 09:56:15;;;;;;;33.53;20.60;;;4.70;99.90;;;;;;4994684;28;20239;-79
2023/03/02 09:58:49;;;;;;;29.50;20.37;;;4.90;99.90;;;;;;4991892;28;20209;-80
2023/03/02 10:01:21;;;;;;;32.20;21.20;;;4.90;99.90;;;;;;4992079;28;20200;-78
2023/03/02 10:03:56;;;;;;;35.90;22.17;;;5.00;99.90;;;;;;4993408;28;20554;-77
2023/03/02 10:06:22;;;;;;;36.70;22.40;;;5.00;99.90;;;;;;4992264;28;20198;-80
2023/03/02 10:08:50;;;;;;;34.90;22.13;;;5.00;99.90;;;;;;4993229;28;20211;-79
2023/03/02 10:11:22;;;;;;;33.17;20.30;;;5.00;99.90;;;;;;4993010;28;20204;-77
2023/03/02 10:13:54;;;;;;;29.57;20.73;;;5.00;99.90;;;;;;4993996;28;20224;-78
2023/03/02 10:16:30;;;;;;;34.00;21.00;;;5.00;99.90;;;;;;4994185;28;20310;-78
2023/03/02 10:19:08;;;;;;;31.20;20.17;;;4.90;99.90;;;;;;5016543;23;20643;-78
2023/03/02 10:21:39;;;;;;;35.30;22.83;;;4.80;99.90;;;;;;5013312;28;20293;-78
2023/03/02 10:24:15;;;;;;;33.40;21.23;;;4.80;99.90;;;;;;5012994;28;20274;-78
2023/03/02 10:26:43;;;;;;;32.03;20.87;;;4.80;99.90;;;;;;4993139;28;20282;-78
2023/03/02 10:29:27;;;;;;;33.20;20.43;;;4.80;99.90;;;;;;5004296;28;20239;-79
2023/03/02 10:32:02;;;;;;;34.07;20.70;;;4.80;99.90;;;;;;5008862;28;20596;-79
2023/03/02 10:34:31;;;;;;;30.47;21.00;;;4.80;99.90;;;;;;5012346;28;20201;-78
2023/03/02 10:36:58;;;;;;;34.53;21.50;;;4.80;99.90;;;;;;5012944;28;20219;-78
2023/03/02 10:39:25;;;;;;;34.10;21.27;;;4.90;99.90;;;;;;5013311;28;20199;-78
2023/03/02 10:41:58;;;;;;;30.93;20.13;;;4.80;99.90;;;;;;5001561;28;20303;-79
2023/03/02 10:44:30;;;;;;;31.27;20.77;;;4.90;99.90;;;;;;4993484;28;20591;-78
2023/03/02 10:46:58;;;;;;;34.20;21.83;;;4.80;99.90;;;;;;4993187;28;20192;-78
2023/03/02 10:49:28;;;;;;;33.37;21.53;;;4.90;99.90;;;;;;4992894;28;20286;-78
2023/03/02 10:51:58;;;;;;;29.70;20.23;;;5.00;99.90;;;;;;4992944;28;20270;-79
2023/03/02 10:54:27;;;;;;;34.10;21.50;;;5.10;99.90;;;;;;4992740;28;20529;-78
2023/03/02 10:56:57;;;;;;;34.13;22.03;;;5.30;99.90;;;;;;4993062;28;20228;-79
2023/03/02 10:59:38;;;;;;;32.17;22.50;;;5.40;99.90;;;;;;4993048;28;20298;-79
2023/03/02 11:02:16;;;;;;;30.90;19.10;;;5.30;99.90;;;;;;4992765;28;20199;-79
2023/03/02 11:04:43;;;;;;;29.53;19.70;;;5.30;99.90;;;;;;4992966;28;20235;-79
2023/03/02 11:07:17;;;;;;;30.83;20.53;;;5.50;99.90;;;;;;4992780;28;20200;-79
2023/03/02 11:09:44;;;;;;;30.43;20.17;;;5.80;99.90;;;;;;4996710;28;20211;-79
2023/03/02 11:12:22;;;;;;;30.20;19.23;;;5.90;99.90;;;;;;5011602;28;20884;-79
2023/03/02 11:14:49;;;;;;;29.30;20.00;;;6.00;99.90;;;;;;5005791;28;20316;-79
2023/03/02 11:17:31;;;;;;;27.50;18.40;;;6.00;99.90;;;;;;4991578;28;20231;-78
2023/03/02 11:19:58;;;;;;;24.70;17.50;;;6.00;99.90;;;;;;4991477;28;20612;-79
2023/03/02 11:22:36;;;;;;;27.70;18.30;;;6.00;99.90;;;;;;4991298;28;20604;-79
2023/03/02 11:25:11;;;;;;;28.40;18.17;;;5.90;99.90;;;;;;4992037;28;20214;-79
2023/03/02 11:27:43;;;;;;;29.43;18.50;;;5.90;99.90;;;;;;4992177;28;20222;-79
2023/03/02 11:30:15;;;;;;;30.47;19.37;;;6.00;99.90;;;;;;4990972;28;20516;-79
2023/03/02 11:32:49;;;;;;;25.93;17.43;;;6.20;99.90;;;;;;5011479;28;20214;-78
2023/03/02 11:35:28;;;;;;;25.70;17.60;;;6.40;99.90;;;;;;4997715;28;20230;-80
2023/03/02 11:38:03;;;;;;;25.67;17.17;;;6.50;99.90;;;;;;4991116;28;20698;-79
2023/03/02 11:40:34;;;;;;;24.33;16.77;;;6.70;99.90;;;;;;4991805;28;20641;-79
2023/03/02 11:43:03;;;;;;;26.30;18.07;;;6.80;99.90;;;;;;4991941;28;20282;-79
2023/03/02 11:45:33;;;;;;;23.33;17.50;;;7.10;99.90;;;;;;4994264;28;20348;-80
2023/03/02 11:48:06;;;;;;;24.23;16.90;;;7.30;99.90;;;;;;4993936;28;20235;-79
2023/03/02 11:50:37;;;;;;;26.93;18.10;;;7.40;99.90;;;;;;4991954;28;20597;-79
2023/03/02 11:53:11;;;;;;;23.00;16.23;;;7.20;99.90;;;;;;4992105;28;20226;-80
2023/03/02 11:55:44;;;;;;;24.30;16.90;;;7.10;99.90;;;;;;4992423;28;20290;-78
2023/03/02 11:58:16;;;;;;;23.13;17.10;;;7.10;99.90;;;;;;4992076;28;20227;-80
2023/03/02 12:00:44;;;;;;;22.87;17.40;;;7.00;99.90;;;;;;4992447;28;20193;-80
2023/03/02 12:03:21;;;;;;;25.40;16.40;;;6.90;99.90;;;;;;4995979;28;20652;-80
2023/03/02 12:06:00;;;;;;;26.37;17.50;;;6.80;99.90;;;;;;5011659;28;20274;-79
2023/03/02 12:08:35;;;;;;;24.60;17.27;;;6.60;99.90;;;;;;5012103;28;20200;-79
2023/03/02 12:11:05;;;;;;;24.13;17.23;;;6.50;99.90;;;;;;5010284;28;20233;-80
2023/03/02 12:13:34;;;;;;;27.10;18.60;;;6.40;99.90;;;;;;5011790;28;20242;-79
2023/03/02 12:16:01;;;;;;;26.27;17.97;;;6.30;99.90;;;;;;5011660;28;20315;-78
2023/03/02 12:18:42;;;;;;;26.50;17.93;;;6.50;99.90;;;;;;5011270;28;20262;-80
2023/03/02 12:21:11;;;;;;;24.40;17.77;;;6.80;99.90;;;;;;4996947;28;20219;-79
2023/03/02 12:23:58;;;;;;;27.73;18.60;;;7.00;99.90;;;;;;4992596;28;20548;-79
2023/03/02 12:26:29;;;;;;;25.63;18.17;;;7.20;99.90;;;;;;4995034;28;20643;-80
2023/03/02 12:29:00;;;;;;;26.27;17.50;;;7.40;99.90;;;;;;4995665;28;20685;-79
2023/03/02 12:31:39;;;;;;;23.17;17.13;;;7.50;99.90;;;;;;4995694;28;20282;-79
2023/03/02 12:34:32;;;;;;;23.50;17.57;;;7.50;99.90;;;;;;4995427;28;20214;-80
2023/03/02 12:37:03;;;;;;;25.63;17.93;;;7.60;99.90;;;;;;5013374;28;20211;-78
2023/03/02 12:39:47;;;;;;;25.83;18.23;;;7.60;99.90;;;;;;5012795;28;20298;-79
2023/03/02 12:42:42;;;;;;;27.03;17.73;;;7.60;99.90;;;;;;4995497;28;20184;-80
2023/03/02 12:45:20;;;;;;;28.50;18.77;;;7.60;99.90;;;;;;4994550;28;20211;-79
2023/03/02 12:47:52;;;;;;;28.50;18.80;;;7.60;99.90;;;;;;5004535;28;20298;-80